Airfield :
LOGIN :

Register | Disclaimer

   EN    FR    IT 

 










Legend :    VFR   Marginal VFR   IFR   Intensive IFR   Very Intensive IFR
Visi :
Ceiling :
>= 8 km
>= 3000ft
5 to 8 km
1000 to 3000 ft
1500m to 5 km
500 to 1000 ft
800 to 1500m
200 to 500 ft
< 800m
< 200 ft
Symbols :   Thunderstorms  Fog  Heavy snow  Heavy precipitations  Wind > 20 kt
SIGMETs :     Misc.  Thunderstorms  Icing  Turbulence  Mountain Waves  Volcanic Ashes






- Airport Elevation : 604 ft
- IATA code : LCJ


EPLL - Lodz

CURRENT METAR :
  • 020730Z 23007KT 190V250 CAVOK 03/M04 Q1012

EXPIRED METARs :
  • 020700Z 22008KT CAVOK 02/M05 Q1012
  • 020630Z 23006KT 190V260 CAVOK 02/M05 Q1012
  • 020600Z 22006KT 190V260 CAVOK 01/M06 Q1012
  • 020530Z 23006KT 200V260 CAVOK 00/M06 Q1012
  • 020500Z 21006KT 190V250 CAVOK M01/M06 Q1012
  • 020430Z 22006KT CAVOK M01/M06 Q1012

TAF TAF EPLL
Valid from the 02 at 06:00 until the 03 at 06:00 UTC


020530Z 0206/0306 26010KT 9999 BKN040
PROB40 0209/0215 26015G25KT
BECMG 0218/0220 20007KT



MET'MAP, your aeronautical weather chart ! - Copyright ORBIFLY December 2007 - Disclaimer

ORBIFLY MET'MAP TEAM :

Programming & Development : Alexandra Zaïnal
Concept & original design : Baudouin d'Aumeries
Assistance for programming : Marc-Olivier Méhu
Technical & hardware support : Manuel Goepfert

Contact : metmap@orbifly.com




SOURCES & CREDITS :

   NOAA